首页
METAR-TAF:

METAR-TAF

机场 :

韋科, 得克萨斯州, 美国

纬度: 31-37-02N, 经度: 097-13-40W, 海拔: 157米

当前天气观测

该预报发布于33分钟前的00:51 UTC
风速11节,风向南转南东
温度 29°C
湿度 62%
气压 1008 hPa
能見度: 16.1公里
天空无云

METAR: KACT 210051Z 16011KT 10SM CLR 29/21 A2976 RMK AO2 SLP068 T02890206

时间: 20:24 (01:24 UTC)

预报

该预报发布于1小时和47分钟前的23:37 UTC
预报有效从21日的 00点(UTC)到 21日的 24点(UTC)
风速13节,风向南转南东
能見度: 10公里
少量云层高于25000英尺
从 21日的 0700点(UTC)
风速11节,风向
能見度: 10公里
阴天层高于1200英尺
短暂存在
从 21日的 07点(UTC)到 21日的 09点(UTC)
多云层高于800英尺
从 21日的 1500点(UTC)
风速16节,风向
能見度: 10公里
多云层高于2500英尺
从 21日的 1700点(UTC)
风速15节,风向
能見度: 10公里
多云层高于3500英尺
从 21日的 1900点(UTC)
风速14节,风向
能見度: 10公里
散云层高于4500英尺

TAF: KACT 202337Z 2100/2124 16013KT P6SM FEW250 FM210700 18011KT P6SM OVC012 TEMPO 2107/2109 BKN008 FM211500 19016KT P6SM BKN025 FM211700 18015KT P6SM BKN035 FM211900 17014KT P6SM SCT045

超过4000个机场的气象观测和天气预报(METAR&TAF报告)。

可查询的气象台以黄色和红色小点在地图上表示。

将鼠标移到小点上方,可查看气象台名称。

然后点击查看天气观测和预报。

如需切换地图:点击带黑十字的绿色按钮放大地图;点击带横线的绿色按钮缩小地图;或者点击绿色箭头查看邻近地区的地图。


METAR-TAF: